sensor_id;sensor_type;location;lat;lon;timestamp;pressure;altitude;pressure_sealevel;temperature;humidity
18900;BME280;9582;52.018;6.306;2023-05-15T00:00:26;104524.28;;;11.99;100.00
18900;BME280;9582;52.018;6.306;2023-05-15T00:02:53;104531.25;;;11.97;100.00
18900;BME280;9582;52.018;6.306;2023-05-15T00:05:21;104534.72;;;11.93;100.00
18900;BME280;9582;52.018;6.306;2023-05-15T00:07:47;104526.81;;;11.91;100.00
18900;BME280;9582;52.018;6.306;2023-05-15T00:10:14;104525.91;;;11.85;100.00
18900;BME280;9582;52.018;6.306;2023-05-15T00:12:40;104520.63;;;11.82;100.00
18900;BME280;9582;52.018;6.306;2023-05-15T00:15:09;104524.97;;;11.78;100.00
18900;BME280;9582;52.018;6.306;2023-05-15T00:17:35;104525.81;;;11.76;100.00
18900;BME280;9582;52.018;6.306;2023-05-15T00:20:02;104520.53;;;11.73;100.00
18900;BME280;9582;52.018;6.306;2023-05-15T00:22:31;104515.25;;;11.68;100.00
18900;BME280;9582;52.018;6.306;2023-05-15T00:24:58;104516.94;;;11.65;100.00
18900;BME280;9582;52.018;6.306;2023-05-15T00:27:24;104516.91;;;11.62;100.00
18900;BME280;9582;52.018;6.306;2023-05-15T00:29:52;104506.38;;;11.55;100.00
18900;BME280;9582;52.018;6.306;2023-05-15T00:32:20;104521.16;;;11.52;100.00
18900;BME280;9582;52.018;6.306;2023-05-15T00:34:46;104515.03;;;11.48;100.00
18900;BME280;9582;52.018;6.306;2023-05-15T00:37:13;104525.50;;;11.45;100.00
18900;BME280;9582;52.018;6.306;2023-05-15T00:39:39;104534.22;;;11.43;100.00
18900;BME280;9582;52.018;6.306;2023-05-15T00:42:06;104536.78;;;11.40;100.00
18900;BME280;9582;52.018;6.306;2023-05-15T00:44:34;104544.63;;;11.38;100.00
18900;BME280;9582;52.018;6.306;2023-05-15T00:47:01;104541.13;;;11.36;100.00
18900;BME280;9582;52.018;6.306;2023-05-15T00:49:30;104535.84;;;11.33;100.00
18900;BME280;9582;52.018;6.306;2023-05-15T00:52:00;104547.13;;;11.29;100.00
18900;BME280;9582;52.018;6.306;2023-05-15T00:54:28;104537.50;;;11.25;100.00
18900;BME280;9582;52.018;6.306;2023-05-15T00:56:55;104536.59;;;11.23;100.00
18900;BME280;9582;52.018;6.306;2023-05-15T00:59:23;104530.44;;;11.21;100.00
18900;BME280;9582;52.018;6.306;2023-05-15T01:01:50;104526.91;;;11.18;100.00
18900;BME280;9582;52.018;6.306;2023-05-15T01:04:17;104524.28;;;11.16;100.00
18900;BME280;9582;52.018;6.306;2023-05-15T01:06:45;104516.38;;;11.13;100.00
18900;BME280;9582;52.018;6.306;2023-05-15T01:09:13;104516.34;;;11.10;100.00
18900;BME280;9582;52.018;6.306;2023-05-15T01:11:41;104500.59;;;11.07;100.00
18900;BME280;9582;52.018;6.306;2023-05-15T01:14:08;104484.84;;;11.04;100.00
18900;BME280;9582;52.018;6.306;2023-05-15T01:16:35;104477.81;;;11.01;100.00
18900;BME280;9582;52.018;6.306;2023-05-15T01:19:03;104468.22;;;11.00;100.00
18900;BME280;9582;52.018;6.306;2023-05-15T01:21:56;104448.09;;;10.98;100.00
18900;BME280;9582;52.018;6.306;2023-05-15T01:24:49;104434.97;;;10.92;100.00
18900;BME280;9582;52.018;6.306;2023-05-15T01:27:25;104402.66;;;10.91;100.00
18900;BME280;9582;52.018;6.306;2023-05-15T01:29:59;104383.44;;;10.92;100.00
18900;BME280;9582;52.018;6.306;2023-05-15T01:32:45;104372.06;;;10.89;100.00
18900;BME280;9582;52.018;6.306;2023-05-15T01:35:17;104353.72;;;10.86;100.00
18900;BME280;9582;52.018;6.306;2023-05-15T01:37:48;104344.09;;;10.83;100.00
18900;BME280;9582;52.018;6.306;2023-05-15T01:40:17;104333.56;;;10.80;100.00
18900;BME280;9582;52.018;6.306;2023-05-15T01:42:50;104276.81;;;10.79;100.00
18900;BME280;9582;52.018;6.306;2023-05-15T01:45:20;104272.44;;;10.77;100.00
18900;BME280;9582;52.018;6.306;2023-05-15T01:47:49;104261.09;;;10.75;100.00
18900;BME280;9582;52.018;6.306;2023-05-15T01:50:19;104250.59;;;10.73;100.00
18900;BME280;9582;52.018;6.306;2023-05-15T01:52:49;104246.22;;;10.71;100.00
18900;BME280;9582;52.018;6.306;2023-05-15T01:55:17;104233.97;;;10.68;100.00
18900;BME280;9582;52.018;6.306;2023-05-15T01:57:46;104227.81;;;10.65;100.00
18900;BME280;9582;52.018;6.306;2023-05-15T02:00:16;104225.19;;;10.62;100.00
18900;BME280;9582;52.018;6.306;2023-05-15T02:02:43;104207.72;;;10.58;100.00
18900;BME280;9582;52.018;6.306;2023-05-15T02:05:11;104203.31;;;10.55;100.00
18900;BME280;9582;52.018;6.306;2023-05-15T02:07:38;104204.16;;;10.51;100.00
18900;BME280;9582;52.018;6.306;2023-05-15T02:10:07;104188.41;;;10.48;100.00
18900;BME280;9582;52.018;6.306;2023-05-15T02:12:35;104177.94;;;10.48;100.00
18900;BME280;9582;52.018;6.306;2023-05-15T02:15:02;104170.06;;;10.45;100.00
18900;BME280;9582;52.018;6.306;2023-05-15T02:17:30;104148.25;;;10.43;100.00
18900;BME280;9582;52.018;6.306;2023-05-15T02:19:57;104146.47;;;10.39;100.00
18900;BME280;9582;52.018;6.306;2023-05-15T02:22:24;104136.00;;;10.37;100.00
18900;BME280;9582;52.018;6.306;2023-05-15T02:24:50;104117.66;;;10.36;100.00
18900;BME280;9582;52.018;6.306;2023-05-15T02:27:19;104090.59;;;10.34;100.00
18900;BME280;9582;52.018;6.306;2023-05-15T02:29:59;104081.91;;;10.35;100.00
18900;BME280;9582;52.018;6.306;2023-05-15T02:32:37;104067.94;;;10.34;100.00
18900;BME280;9582;52.018;6.306;2023-05-15T02:35:15;104058.34;;;10.33;100.00
18900;BME280;9582;52.018;6.306;2023-05-15T02:37:45;104044.38;;;10.31;100.00
18900;BME280;9582;52.018;6.306;2023-05-15T02:40:14;104033.91;;;10.30;100.00
18900;BME280;9582;52.018;6.306;2023-05-15T02:42:42;104018.19;;;10.28;100.00
18900;BME280;9582;52.018;6.306;2023-05-15T02:45:09;104010.31;;;10.25;100.00
18900;BME280;9582;52.018;6.306;2023-05-15T02:47:39;104005.06;;;10.22;100.00
18900;BME280;9582;52.018;6.306;2023-05-15T02:50:07;103980.66;;;10.19;100.00
18900;BME280;9582;52.018;6.306;2023-05-15T02:52:34;103972.78;;;10.17;100.00
18900;BME280;9582;52.018;6.306;2023-05-15T02:55:00;103963.16;;;10.16;100.00
18900;BME280;9582;52.018;6.306;2023-05-15T02:57:27;103943.94;;;10.11;100.00
18900;BME280;9582;52.018;6.306;2023-05-15T02:59:53;103936.09;;;10.11;100.00
18900;BME280;9582;52.018;6.306;2023-05-15T03:02:21;103935.22;;;10.11;100.00
18900;BME280;9582;52.018;6.306;2023-05-15T03:04:49;103924.75;;;10.09;100.00
18900;BME280;9582;52.018;6.306;2023-05-15T03:07:15;103923.84;;;10.06;100.00
18900;BME280;9582;52.018;6.306;2023-05-15T03:09:42;103902.06;;;10.04;100.00
18900;BME280;9582;52.018;6.306;2023-05-15T03:12:09;103902.94;;;10.04;100.00
18900;BME280;9582;52.018;6.306;2023-05-15T03:14:35;103885.50;;;10.03;100.00
18900;BME280;9582;52.018;6.306;2023-05-15T03:17:02;103876.78;;;10.01;100.00
18900;BME280;9582;52.018;6.306;2023-05-15T03:19:29;103861.09;;;10.01;100.00
18900;BME280;9582;52.018;6.306;2023-05-15T03:21:57;103849.75;;;10.01;100.00
18900;BME280;9582;52.018;6.306;2023-05-15T03:24:24;103844.50;;;10.02;100.00
18900;BME280;9582;52.018;6.306;2023-05-15T03:26:50;103834.06;;;10.01;100.00
18900;BME280;9582;52.018;6.306;2023-05-15T03:29:17;103828.81;;;9.99;100.00
18900;BME280;9582;52.018;6.306;2023-05-15T03:31:43;103818.34;;;9.96;100.00
18900;BME280;9582;52.018;6.306;2023-05-15T03:34:10;103816.63;;;10.00;100.00
18900;BME280;9582;52.018;6.306;2023-05-15T03:36:36;103808.75;;;9.95;100.00
18900;BME280;9582;52.018;6.306;2023-05-15T03:39:04;103791.28;;;9.86;100.00
18900;BME280;9582;52.018;6.306;2023-05-15T03:41:31;103786.03;;;9.79;100.00
18900;BME280;9582;52.018;6.306;2023-05-15T03:43:59;103777.28;;;9.77;100.00
18900;BME280;9582;52.018;6.306;2023-05-15T03:46:25;103775.56;;;9.80;100.00
18900;BME280;9582;52.018;6.306;2023-05-15T03:48:51;103774.63;;;9.71;100.00
18900;BME280;9582;52.018;6.306;2023-05-15T03:51:20;103766.78;;;9.65;100.00
18900;BME280;9582;52.018;6.306;2023-05-15T03:53:48;103761.53;;;9.65;100.00
18900;BME280;9582;52.018;6.306;2023-05-15T03:56:16;103749.34;;;9.68;100.00
18900;BME280;9582;52.018;6.306;2023-05-15T03:58:42;103758.09;;;9.70;100.00
18900;BME280;9582;52.018;6.306;2023-05-15T04:01:09;103749.41;;;9.76;100.00
18900;BME280;9582;52.018;6.306;2023-05-15T04:03:35;103738.09;;;9.75;100.00
18900;BME280;9582;52.018;6.306;2023-05-15T04:06:02;103730.22;;;9.77;100.00
18900;BME280;9582;52.018;6.306;2023-05-15T04:08:29;103726.78;;;9.76;100.00
18900;BME280;9582;52.018;6.306;2023-05-15T04:10:55;103725.91;;;9.76;100.00
18900;BME280;9582;52.018;6.306;2023-05-15T04:13:23;103721.53;;;9.78;100.00
18900;BME280;9582;52.018;6.306;2023-05-15T04:15:49;103725.03;;;9.80;100.00
18900;BME280;9582;52.018;6.306;2023-05-15T04:18:17;103720.69;;;9.83;100.00
18900;BME280;9582;52.018;6.306;2023-05-15T04:20:44;103725.09;;;9.92;100.00
18900;BME280;9582;52.018;6.306;2023-05-15T04:23:10;103751.28;;;10.01;100.00
18900;BME280;9582;52.018;6.306;2023-05-15T04:25:37;103750.41;;;10.08;100.00
18900;BME280;9582;52.018;6.306;2023-05-15T04:28:06;103761.81;;;10.15;100.00
18900;BME280;9582;52.018;6.306;2023-05-15T04:30:34;103752.25;;;10.20;100.00
18900;BME280;9582;52.018;6.306;2023-05-15T04:33:01;103756.59;;;10.22;100.00
18900;BME280;9582;52.018;6.306;2023-05-15T04:35:28;103742.66;;;10.23;100.00
18900;BME280;9582;52.018;6.306;2023-05-15T04:37:54;103739.19;;;10.24;100.00
18900;BME280;9582;52.018;6.306;2023-05-15T04:40:21;103738.31;;;10.25;100.00
18900;BME280;9582;52.018;6.306;2023-05-15T04:42:48;103740.94;;;10.28;100.00
18900;BME280;9582;52.018;6.306;2023-05-15T04:45:14;103738.31;;;10.25;100.00
18900;BME280;9582;52.018;6.306;2023-05-15T04:47:42;103730.47;;;10.28;100.00
18900;BME280;9582;52.018;6.306;2023-05-15T04:50:09;103725.25;;;10.31;100.00
18900;BME280;9582;52.018;6.306;2023-05-15T04:52:36;103717.44;;;10.37;100.00
18900;BME280;9582;52.018;6.306;2023-05-15T04:55:03;103730.53;;;10.47;100.00
18900;BME280;9582;52.018;6.306;2023-05-15T04:57:30;103720.06;;;10.51;100.00
18900;BME280;9582;52.018;6.306;2023-05-15T04:59:56;103725.31;;;10.57;100.00
18900;BME280;9582;52.018;6.306;2023-05-15T05:02:23;103720.06;;;10.62;100.00
18900;BME280;9582;52.018;6.306;2023-05-15T05:04:51;103717.47;;;10.69;100.00
18900;BME280;9582;52.018;6.306;2023-05-15T05:07:18;103705.25;;;10.76;100.00
18900;BME280;9582;52.018;6.306;2023-05-15T05:09:44;103709.63;;;10.83;100.00
18900;BME280;9582;52.018;6.306;2023-05-15T05:12:11;103705.28;;;10.86;100.00
18900;BME280;9582;52.018;6.306;2023-05-15T05:14:38;103702.66;;;10.91;100.00
18900;BME280;9582;52.018;6.306;2023-05-15T05:17:06;103700.91;;;10.97;100.00
18900;BME280;9582;52.018;6.306;2023-05-15T05:19:32;103715.75;;;11.00;100.00
18900;BME280;9582;52.018;6.306;2023-05-15T05:22:00;103707.88;;;10.97;100.00
18900;BME280;9582;52.018;6.306;2023-05-15T05:24:29;103704.41;;;10.95;100.00
18900;BME280;9582;52.018;6.306;2023-05-15T05:26:56;103700.88;;;10.93;100.00
18900;BME280;9582;52.018;6.306;2023-05-15T05:29:23;103695.66;;;10.90;100.00
18900;BME280;9582;52.018;6.306;2023-05-15T05:31:49;103694.78;;;10.89;100.00
18900;BME280;9582;52.018;6.306;2023-05-15T05:34:17;103685.19;;;10.93;100.00
18900;BME280;9582;52.018;6.306;2023-05-15T05:36:44;103684.31;;;10.97;100.00
18900;BME280;9582;52.018;6.306;2023-05-15T05:39:11;103698.25;;;11.03;100.00
18900;BME280;9582;52.018;6.306;2023-05-15T05:41:38;103694.78;;;11.09;100.00
18900;BME280;9582;52.018;6.306;2023-05-15T05:44:10;103695.63;;;11.10;100.00
18900;BME280;9582;52.018;6.306;2023-05-15T05:46:36;103701.75;;;11.06;100.00
18900;BME280;9582;52.018;6.306;2023-05-15T05:49:03;103697.41;;;10.97;100.00
18900;BME280;9582;52.018;6.306;2023-05-15T05:51:29;103692.16;;;10.88;100.00
18900;BME280;9582;52.018;6.306;2023-05-15T05:53:56;103682.56;;;10.84;100.00
18900;BME280;9582;52.018;6.306;2023-05-15T05:56:24;103678.19;;;10.84;100.00
18900;BME280;9582;52.018;6.306;2023-05-15T05:58:50;103668.63;;;10.77;100.00
18900;BME280;9582;52.018;6.306;2023-05-15T06:01:17;103665.97;;;10.76;100.00
18900;BME280;9582;52.018;6.306;2023-05-15T06:03:43;103667.72;;;10.68;100.00
18900;BME280;9582;52.018;6.306;2023-05-15T06:06:10;103653.78;;;10.67;100.00
18900;BME280;9582;52.018;6.306;2023-05-15T06:08:37;103669.50;;;10.69;100.00
18900;BME280;9582;52.018;6.306;2023-05-15T06:11:03;103659.00;;;10.70;100.00
18900;BME280;9582;52.018;6.306;2023-05-15T06:13:31;103678.22;;;10.71;100.00
18900;BME280;9582;52.018;6.306;2023-05-15T06:15:58;103708.75;;;10.79;100.00
18900;BME280;9582;52.018;6.306;2023-05-15T06:18:24;103738.44;;;10.86;100.00
18900;BME280;9582;52.018;6.306;2023-05-15T06:20:51;103754.13;;;10.93;100.00
18900;BME280;9582;52.018;6.306;2023-05-15T06:23:18;103775.06;;;10.98;100.00
18900;BME280;9582;52.018;6.306;2023-05-15T06:25:44;103791.66;;;10.97;100.00
18900;BME280;9582;52.018;6.306;2023-05-15T06:28:11;103816.09;;;11.07;100.00
18900;BME280;9582;52.018;6.306;2023-05-15T06:30:39;103827.47;;;11.16;100.00
18900;BME280;9582;52.018;6.306;2023-05-15T06:33:05;103852.81;;;11.34;100.00
18900;BME280;9582;52.018;6.306;2023-05-15T06:35:32;103847.56;;;11.38;100.00
18900;BME280;9582;52.018;6.306;2023-05-15T06:37:58;103865.91;;;11.53;100.00
18900;BME280;9582;52.018;6.306;2023-05-15T06:40:25;103879.00;;;11.69;100.00
18900;BME280;9582;52.018;6.306;2023-05-15T06:42:51;103873.81;;;11.70;100.00
18900;BME280;9582;52.018;6.306;2023-05-15T06:45:17;103861.53;;;11.83;100.00
18900;BME280;9582;52.018;6.306;2023-05-15T06:47:45;103851.94;;;11.85;100.00
18900;BME280;9582;52.018;6.306;2023-05-15T06:50:12;103832.72;;;11.77;100.00
18900;BME280;9582;52.018;6.306;2023-05-15T06:52:38;103809.09;;;11.68;100.00
18900;BME280;9582;52.018;6.306;2023-05-15T06:55:05;103788.16;;;11.74;100.00
18900;BME280;9582;52.018;6.306;2023-05-15T06:57:32;103783.69;;;12.03;100.00
18900;BME280;9582;52.018;6.306;2023-05-15T06:59:59;103790.56;;;12.28;100.00
18900;BME280;9582;52.018;6.306;2023-05-15T07:02:25;103787.84;;;12.49;100.00
18900;BME280;9582;52.018;6.306;2023-05-15T07:04:53;103772.97;;;12.50;100.00
18900;BME280;9582;52.018;6.306;2023-05-15T07:07:20;103757.22;;;12.51;100.00
18900;BME280;9582;52.018;6.306;2023-05-15T07:09:46;103739.63;;;12.62;100.00
18900;BME280;9582;52.018;6.306;2023-05-15T07:12:14;103724.72;;;12.64;100.00
18900;BME280;9582;52.018;6.306;2023-05-15T07:14:41;103716.75;;;12.80;100.00
18900;BME280;9582;52.018;6.306;2023-05-15T07:17:07;103699.97;;;12.96;100.00
18900;BME280;9582;52.018;6.306;2023-05-15T07:19:34;103689.38;;;13.05;100.00
18900;BME280;9582;52.018;6.306;2023-05-15T07:22:01;103688.16;;;13.42;100.00
18900;BME280;9582;52.018;6.306;2023-05-15T07:24:28;103677.44;;;13.60;100.00
18900;BME280;9582;52.018;6.306;2023-05-15T07:26:55;103676.03;;;14.01;100.00
18900;BME280;9582;52.018;6.306;2023-05-15T07:29:21;103666.94;;;14.23;100.00
18900;BME280;9582;52.018;6.306;2023-05-15T07:31:48;103655.25;;;14.43;100.00
18900;BME280;9582;52.018;6.306;2023-05-15T07:34:16;103640.88;;;14.63;100.00
18900;BME280;9582;52.018;6.306;2023-05-15T07:36:42;103628.13;;;14.89;100.00
18900;BME280;9582;52.018;6.306;2023-05-15T07:39:10;103619.16;;;14.99;100.00
18900;BME280;9582;52.018;6.306;2023-05-15T07:41:37;103611.13;;;15.05;100.00
18900;BME280;9582;52.018;6.306;2023-05-15T07:44:03;103603.75;;;15.24;100.00
18900;BME280;9582;52.018;6.306;2023-05-15T07:46:30;103588.16;;;15.12;100.00
18900;BME280;9582;52.018;6.306;2023-05-15T07:48:57;103584.97;;;15.39;100.00
18900;BME280;9582;52.018;6.306;2023-05-15T07:51:23;103583.84;;;15.52;100.00
18900;BME280;9582;52.018;6.306;2023-05-15T07:53:50;103590.28;;;15.79;100.00
18900;BME280;9582;52.018;6.306;2023-05-15T07:56:18;103597.94;;;15.89;100.00
18900;BME280;9582;52.018;6.306;2023-05-15T07:58:44;103602.19;;;15.96;100.00
18900;BME280;9582;52.018;6.306;2023-05-15T08:01:11;103594.84;;;16.09;100.00
18900;BME280;9582;52.018;6.306;2023-05-15T08:03:37;103600.16;;;16.07;100.00
18900;BME280;9582;52.018;6.306;2023-05-15T08:06:04;103616.28;;;15.95;100.00
18900;BME280;9582;52.018;6.306;2023-05-15T08:08:32;103641.53;;;16.07;100.00
18900;BME280;9582;52.018;6.306;2023-05-15T08:10:58;103668.16;;;16.35;100.00
18900;BME280;9582;52.018;6.306;2023-05-15T08:13:26;103675.19;;;16.34;100.00
18900;BME280;9582;52.018;6.306;2023-05-15T08:15:53;103675.13;;;16.39;100.00
18900;BME280;9582;52.018;6.306;2023-05-15T08:18:20;103679.00;;;16.61;100.00
18900;BME280;9582;52.018;6.306;2023-05-15T08:20:46;103690.91;;;16.77;100.00
18900;BME280;9582;52.018;6.306;2023-05-15T08:23:13;103671.44;;;16.81;100.00
18900;BME280;9582;52.018;6.306;2023-05-15T08:25:40;103682.47;;;16.98;100.00
18900;BME280;9582;52.018;6.306;2023-05-15T08:28:06;103678.50;;;17.14;100.00
18900;BME280;9582;52.018;6.306;2023-05-15T08:30:34;103680.06;;;17.21;100.00
18900;BME280;9582;52.018;6.306;2023-05-15T08:33:00;103684.94;;;17.37;100.00
18900;BME280;9582;52.018;6.306;2023-05-15T08:35:27;103701.16;;;17.57;100.00
18900;BME280;9582;52.018;6.306;2023-05-15T08:37:53;103698.59;;;17.54;100.00
18900;BME280;9582;52.018;6.306;2023-05-15T08:40:20;103677.28;;;17.26;100.00
18900;BME280;9582;52.018;6.306;2023-05-15T08:42:49;103670.63;;;17.13;100.00
18900;BME280;9582;52.018;6.306;2023-05-15T08:45:19;103682.94;;;17.45;100.00
18900;BME280;9582;52.018;6.306;2023-05-15T08:47:47;103668.84;;;17.44;100.00
18900;BME280;9582;52.018;6.306;2023-05-15T08:50:15;103662.09;;;17.65;100.00
18900;BME280;9582;52.018;6.306;2023-05-15T08:52:43;103644.16;;;17.74;100.00
18900;BME280;9582;52.018;6.306;2023-05-15T08:55:12;103651.59;;;17.91;100.00
18900;BME280;9582;52.018;6.306;2023-05-15T08:57:39;103678.19;;;18.16;100.00
18900;BME280;9582;52.018;6.306;2023-05-15T09:00:07;103698.69;;;18.09;100.00
18900;BME280;9582;52.018;6.306;2023-05-15T09:02:34;103685.31;;;18.14;100.00
18900;BME280;9582;52.018;6.306;2023-05-15T09:05:03;103702.13;;;18.40;100.00
18900;BME280;9582;52.018;6.306;2023-05-15T09:07:30;103679.31;;;18.35;100.00
18900;BME280;9582;52.018;6.306;2023-05-15T09:09:57;103556.88;;;18.01;100.00
18900;BME280;9582;52.018;6.306;2023-05-15T09:12:25;103488.88;;;17.75;100.00
18900;BME280;9582;52.018;6.306;2023-05-15T09:15:07;103481.41;;;17.60;100.00
18900;BME280;9582;52.018;6.306;2023-05-15T09:17:33;103499.56;;;17.98;100.00
18900;BME280;9582;52.018;6.306;2023-05-15T09:20:02;103497.09;;;18.18;100.00
18900;BME280;9582;52.018;6.306;2023-05-15T09:22:33;103482.19;;;18.40;100.00
18900;BME280;9582;52.018;6.306;2023-05-15T09:24:59;103450.50;;;18.37;100.00
18900;BME280;9582;52.018;6.306;2023-05-15T09:27:27;103458.41;;;18.64;100.00
18900;BME280;9582;52.018;6.306;2023-05-15T09:29:54;103410.66;;;18.40;100.00
18900;BME280;9582;52.018;6.306;2023-05-15T09:32:25;103392.94;;;18.66;100.00
18900;BME280;9582;52.018;6.306;2023-05-15T09:34:52;103387.03;;;18.59;100.00
18900;BME280;9582;52.018;6.306;2023-05-15T09:37:28;103352.25;;;18.68;100.00
18900;BME280;9582;52.018;6.306;2023-05-15T09:40:05;103318.66;;;18.90;100.00
18900;BME280;9582;52.018;6.306;2023-05-15T09:42:33;103170.09;;;19.12;100.00
18900;BME280;9582;52.018;6.306;2023-05-15T09:45:00;103034.19;;;19.07;100.00
18900;BME280;9582;52.018;6.306;2023-05-15T09:47:27;103005.28;;;19.01;100.00
18900;BME280;9582;52.018;6.306;2023-05-15T09:49:53;103002.66;;;19.20;100.00
18900;BME280;9582;52.018;6.306;2023-05-15T09:52:20;102996.50;;;19.38;100.00
18900;BME280;9582;52.018;6.306;2023-05-15T09:54:53;103008.53;;;19.26;100.00
18900;BME280;9582;52.018;6.306;2023-05-15T09:57:20;102983.91;;;19.43;100.00
18900;BME280;9582;52.018;6.306;2023-05-15T09:59:48;102963.16;;;19.70;100.00
18900;BME280;9582;52.018;6.306;2023-05-15T10:02:21;102939.84;;;19.57;100.00
18900;BME280;9582;52.018;6.306;2023-05-15T10:04:53;102907.28;;;19.35;100.00
18900;BME280;9582;52.018;6.306;2023-05-15T10:07:26;102902.00;;;19.17;100.00
18900;BME280;9582;52.018;6.306;2023-05-15T10:09:54;102922.94;;;19.23;100.00
18900;BME280;9582;52.018;6.306;2023-05-15T10:12:22;102916.22;;;19.16;100.00
18900;BME280;9582;52.018;6.306;2023-05-15T10:14:49;102928.09;;;19.26;100.00
18900;BME280;9582;52.018;6.306;2023-05-15T10:17:16;102951.63;;;19.33;100.00
18900;BME280;9582;52.018;6.306;2023-05-15T10:19:44;102955.44;;;19.46;100.00
18900;BME280;9582;52.018;6.306;2023-05-15T10:22:13;102945.09;;;19.76;100.00
18900;BME280;9582;52.018;6.306;2023-05-15T10:24:44;102938.13;;;20.09;100.00
18900;BME280;9582;52.018;6.306;2023-05-15T10:27:14;102901.84;;;20.43;100.00
18900;BME280;9582;52.018;6.306;2023-05-15T10:29:41;102855.03;;;20.56;100.00
18900;BME280;9582;52.018;6.306;2023-05-15T10:32:08;102793.47;;;20.63;100.00
18900;BME280;9582;52.018;6.306;2023-05-15T10:34:35;102789.28;;;20.75;100.00
18900;BME280;9582;52.018;6.306;2023-05-15T10:37:03;102745.13;;;20.57;100.00
18900;BME280;9582;52.018;6.306;2023-05-15T10:39:30;102719.31;;;20.59;100.00
18900;BME280;9582;52.018;6.306;2023-05-15T10:41:58;102697.28;;;20.41;100.00
18900;BME280;9582;52.018;6.306;2023-05-15T10:44:26;102698.84;;;20.12;100.00
18900;BME280;9582;52.018;6.306;2023-05-15T10:46:53;102712.22;;;20.11;100.00
18900;BME280;9582;52.018;6.306;2023-05-15T10:49:20;102683.28;;;20.22;100.00
18900;BME280;9582;52.018;6.306;2023-05-15T10:51:46;102677.19;;;20.20;100.00
18900;BME280;9582;52.018;6.306;2023-05-15T10:54:13;102689.22;;;20.27;100.00
18900;BME280;9582;52.018;6.306;2023-05-15T10:56:41;102684.00;;;20.41;100.00
18900;BME280;9582;52.018;6.306;2023-05-15T10:59:08;102717.59;;;20.58;100.00
18900;BME280;9582;52.018;6.306;2023-05-15T11:01:37;102675.94;;;20.27;100.00
18900;BME280;9582;52.018;6.306;2023-05-15T11:04:08;102665.69;;;20.04;100.00
18900;BME280;9582;52.018;6.306;2023-05-15T11:06:36;102692.09;;;19.58;100.00
18900;BME280;9582;52.018;6.306;2023-05-15T11:09:34;102692.44;;;19.68;100.00
18900;BME280;9582;52.018;6.306;2023-05-15T11:12:01;102692.97;;;19.75;100.00
18900;BME280;9582;52.018;6.306;2023-05-15T11:14:29;102715.38;;;20.02;100.00
18900;BME280;9582;52.018;6.306;2023-05-15T11:16:58;102700.31;;;20.02;100.00
18900;BME280;9582;52.018;6.306;2023-05-15T11:19:33;102690.78;;;19.83;100.00
18900;BME280;9582;52.018;6.306;2023-05-15T11:22:01;102703.22;;;19.65;100.00
18900;BME280;9582;52.018;6.306;2023-05-15T11:24:28;102705.53;;;19.38;100.00
18900;BME280;9582;52.018;6.306;2023-05-15T11:26:59;102717.97;;;19.36;100.00
18900;BME280;9582;52.018;6.306;2023-05-15T11:29:25;102701.31;;;19.51;100.00
18900;BME280;9582;52.018;6.306;2023-05-15T11:31:52;102687.41;;;19.79;100.00
18900;BME280;9582;52.018;6.306;2023-05-15T11:34:29;102648.78;;;19.74;100.00
18900;BME280;9582;52.018;6.306;2023-05-15T11:36:57;102629.75;;;19.50;100.00
18900;BME280;9582;52.018;6.306;2023-05-15T11:39:24;102595.16;;;19.34;100.00
18900;BME280;9582;52.018;6.306;2023-05-15T11:41:51;102576.78;;;19.14;100.00
18900;BME280;9582;52.018;6.306;2023-05-15T11:44:19;102562.34;;;18.87;100.00
18900;BME280;9582;52.018;6.306;2023-05-15T11:46:47;102594.75;;;18.58;100.00
18900;BME280;9582;52.018;6.306;2023-05-15T11:49:14;102621.91;;;18.44;100.00
18900;BME280;9582;52.018;6.306;2023-05-15T11:51:42;102662.16;;;18.33;100.00
18900;BME280;9582;52.018;6.306;2023-05-15T11:54:09;102689.72;;;18.29;100.00
18900;BME280;9582;52.018;6.306;2023-05-15T11:56:41;102712.84;;;18.26;100.00
18900;BME280;9582;52.018;6.306;2023-05-15T11:59:09;102727.88;;;18.25;100.00
18900;BME280;9582;52.018;6.306;2023-05-15T12:01:38;102692.00;;;18.18;100.00
18900;BME280;9582;52.018;6.306;2023-05-15T12:04:11;102672.97;;;18.10;100.00
18900;BME280;9582;52.018;6.306;2023-05-15T12:06:39;102673.19;;;18.06;100.00
18900;BME280;9582;52.018;6.306;2023-05-15T12:09:12;102686.44;;;18.06;100.00
18900;BME280;9582;52.018;6.306;2023-05-15T12:11:38;102714.28;;;18.14;100.00
18900;BME280;9582;52.018;6.306;2023-05-15T12:14:09;102737.84;;;18.20;100.00
18900;BME280;9582;52.018;6.306;2023-05-15T12:16:36;102749.72;;;18.30;100.00
18900;BME280;9582;52.018;6.306;2023-05-15T12:19:02;102732.94;;;18.30;100.00
18900;BME280;9582;52.018;6.306;2023-05-15T12:21:30;102670.91;;;18.17;100.00
18900;BME280;9582;52.018;6.306;2023-05-15T12:23:56;102619.00;;;18.13;100.00
18900;BME280;9582;52.018;6.306;2023-05-15T12:26:26;102606.78;;;18.10;100.00
18900;BME280;9582;52.018;6.306;2023-05-15T12:28:54;102588.34;;;18.09;100.00
18900;BME280;9582;52.018;6.306;2023-05-15T12:31:21;102564.91;;;18.18;100.00
18900;BME280;9582;52.018;6.306;2023-05-15T12:33:48;102566.88;;;18.32;100.00
18900;BME280;9582;52.018;6.306;2023-05-15T12:36:18;102571.19;;;18.34;100.00
18900;BME280;9582;52.018;6.306;2023-05-15T12:38:45;102556.13;;;18.35;100.00
18900;BME280;9582;52.018;6.306;2023-05-15T12:41:12;102577.47;;;18.32;100.00
18900;BME280;9582;52.018;6.306;2023-05-15T12:43:39;102577.78;;;18.26;100.00
18900;BME280;9582;52.018;6.306;2023-05-15T12:46:06;102607.47;;;18.32;100.00
18900;BME280;9582;52.018;6.306;2023-05-15T12:48:35;102631.88;;;18.39;100.00
18900;BME280;9582;52.018;6.306;2023-05-15T12:51:05;102674.53;;;18.52;100.00
18900;BME280;9582;52.018;6.306;2023-05-15T12:53:32;102693.25;;;18.49;100.00